sensor_id;sensor_type;location;lat;lon;timestamp;P1;durP1;ratioP1;P2;durP2;ratioP2
35150;SDS011;55720;51.972;4.624;2023-05-10T00:01:22;9.55;;;5.20;;
35150;SDS011;55720;51.972;4.624;2023-05-10T00:03:47;9.23;;;4.97;;
35150;SDS011;55720;51.972;4.624;2023-05-10T00:06:12;8.38;;;5.10;;
35150;SDS011;55720;51.972;4.624;2023-05-10T00:08:38;9.20;;;4.57;;
35150;SDS011;55720;51.972;4.624;2023-05-10T00:11:03;10.05;;;4.28;;
35150;SDS011;55720;51.972;4.624;2023-05-10T00:13:29;10.88;;;4.85;;
35150;SDS011;55720;51.972;4.624;2023-05-10T00:15:54;9.20;;;4.78;;
35150;SDS011;55720;51.972;4.624;2023-05-10T00:18:20;9.55;;;4.38;;
35150;SDS011;55720;51.972;4.624;2023-05-10T00:20:45;12.07;;;5.20;;
35150;SDS011;55720;51.972;4.624;2023-05-10T00:23:11;16.10;;;5.45;;
35150;SDS011;55720;51.972;4.624;2023-05-10T00:25:36;11.88;;;5.32;;
35150;SDS011;55720;51.972;4.624;2023-05-10T00:28:02;12.13;;;5.53;;
35150;SDS011;55720;51.972;4.624;2023-05-10T00:30:27;9.52;;;5.50;;
35150;SDS011;55720;51.972;4.624;2023-05-10T00:32:53;15.05;;;6.43;;
35150;SDS011;55720;51.972;4.624;2023-05-10T00:35:18;13.50;;;6.07;;
35150;SDS011;55720;51.972;4.624;2023-05-10T00:37:44;12.68;;;6.30;;
35150;SDS011;55720;51.972;4.624;2023-05-10T00:40:10;11.43;;;6.97;;
35150;SDS011;55720;51.972;4.624;2023-05-10T00:42:36;17.38;;;7.28;;
35150;SDS011;55720;51.972;4.624;2023-05-10T00:45:01;15.77;;;6.18;;
35150;SDS011;55720;51.972;4.624;2023-05-10T00:47:27;11.98;;;6.00;;
35150;SDS011;55720;51.972;4.624;2023-05-10T00:49:52;14.70;;;6.18;;
35150;SDS011;55720;51.972;4.624;2023-05-10T00:52:18;19.55;;;7.03;;
35150;SDS011;55720;51.972;4.624;2023-05-10T00:54:44;16.30;;;7.25;;
35150;SDS011;55720;51.972;4.624;2023-05-10T00:57:09;13.90;;;6.22;;
35150;SDS011;55720;51.972;4.624;2023-05-10T00:59:35;13.43;;;6.32;;
35150;SDS011;55720;51.972;4.624;2023-05-10T01:02:01;14.75;;;7.40;;
35150;SDS011;55720;51.972;4.624;2023-05-10T01:04:26;20.05;;;7.90;;
35150;SDS011;55720;51.972;4.624;2023-05-10T01:06:53;25.80;;;7.90;;
35150;SDS011;55720;51.972;4.624;2023-05-10T01:09:19;14.82;;;7.00;;
35150;SDS011;55720;51.972;4.624;2023-05-10T01:11:45;17.90;;;7.38;;
35150;SDS011;55720;51.972;4.624;2023-05-10T01:14:11;23.15;;;8.57;;
35150;SDS011;55720;51.972;4.624;2023-05-10T01:16:37;22.60;;;9.07;;
35150;SDS011;55720;51.972;4.624;2023-05-10T01:19:04;18.67;;;7.60;;
35150;SDS011;55720;51.972;4.624;2023-05-10T01:24:26;18.90;;;8.07;;
35150;SDS011;55720;51.972;4.624;2023-05-10T01:35:23;21.40;;;8.40;;
35150;SDS011;55720;51.972;4.624;2023-05-10T01:40:35;21.05;;;7.97;;
35150;SDS011;55720;51.972;4.624;2023-05-10T01:43:23;25.10;;;8.75;;
35150;SDS011;55720;51.972;4.624;2023-05-10T01:48:29;21.65;;;7.03;;
35150;SDS011;55720;51.972;4.624;2023-05-10T01:50:56;16.85;;;6.70;;
35150;SDS011;55720;51.972;4.624;2023-05-10T01:53:22;19.05;;;8.68;;
35150;SDS011;55720;51.972;4.624;2023-05-10T01:55:49;20.05;;;8.07;;
35150;SDS011;55720;51.972;4.624;2023-05-10T01:58:22;21.08;;;7.72;;
35150;SDS011;55720;51.972;4.624;2023-05-10T02:00:51;21.52;;;8.18;;
35150;SDS011;55720;51.972;4.624;2023-05-10T02:03:18;21.38;;;7.85;;
35150;SDS011;55720;51.972;4.624;2023-05-10T02:05:48;30.08;;;8.55;;
35150;SDS011;55720;51.972;4.624;2023-05-10T02:08:14;24.60;;;8.63;;
35150;SDS011;55720;51.972;4.624;2023-05-10T02:10:42;23.23;;;8.98;;
35150;SDS011;55720;51.972;4.624;2023-05-10T02:13:10;24.05;;;8.93;;
35150;SDS011;55720;51.972;4.624;2023-05-10T02:15:36;23.23;;;9.18;;
35150;SDS011;55720;51.972;4.624;2023-05-10T02:18:03;23.02;;;8.85;;
35150;SDS011;55720;51.972;4.624;2023-05-10T02:20:31;24.58;;;9.32;;
35150;SDS011;55720;51.972;4.624;2023-05-10T02:22:57;20.73;;;8.68;;
35150;SDS011;55720;51.972;4.624;2023-05-10T02:25:23;29.83;;;9.55;;
35150;SDS011;55720;51.972;4.624;2023-05-10T02:27:50;26.77;;;9.43;;
35150;SDS011;55720;51.972;4.624;2023-05-10T02:30:18;23.88;;;9.25;;
35150;SDS011;55720;51.972;4.624;2023-05-10T02:32:44;23.20;;;8.73;;
35150;SDS011;55720;51.972;4.624;2023-05-10T02:35:12;27.65;;;9.02;;
35150;SDS011;55720;51.972;4.624;2023-05-10T02:37:37;24.25;;;9.25;;
35150;SDS011;55720;51.972;4.624;2023-05-10T02:40:05;23.30;;;9.43;;
35150;SDS011;55720;51.972;4.624;2023-05-10T02:42:32;36.08;;;9.25;;
35150;SDS011;55720;51.972;4.624;2023-05-10T02:45:00;25.67;;;9.60;;
35150;SDS011;55720;51.972;4.624;2023-05-10T02:47:28;23.08;;;8.32;;
35150;SDS011;55720;51.972;4.624;2023-05-10T02:49:54;27.67;;;9.25;;
35150;SDS011;55720;51.972;4.624;2023-05-10T02:52:21;20.13;;;8.55;;
35150;SDS011;55720;51.972;4.624;2023-05-10T02:54:50;26.20;;;7.95;;
35150;SDS011;55720;51.972;4.624;2023-05-10T02:57:22;28.73;;;9.07;;
35150;SDS011;55720;51.972;4.624;2023-05-10T02:59:52;25.45;;;8.45;;
35150;SDS011;55720;51.972;4.624;2023-05-10T03:02:17;21.65;;;8.82;;
35150;SDS011;55720;51.972;4.624;2023-05-10T03:04:43;22.67;;;7.82;;
35150;SDS011;55720;51.972;4.624;2023-05-10T03:07:08;19.15;;;7.88;;
35150;SDS011;55720;51.972;4.624;2023-05-10T03:09:34;22.80;;;9.93;;
35150;SDS011;55720;51.972;4.624;2023-05-10T03:20:08;21.40;;;9.48;;
35150;SDS011;55720;51.972;4.624;2023-05-10T03:22:47;23.77;;;11.40;;
35150;SDS011;55720;51.972;4.624;2023-05-10T03:25:16;26.15;;;10.45;;
35150;SDS011;55720;51.972;4.624;2023-05-10T03:27:43;25.95;;;10.05;;
35150;SDS011;55720;51.972;4.624;2023-05-10T03:30:12;22.90;;;9.75;;
35150;SDS011;55720;51.972;4.624;2023-05-10T03:32:38;29.98;;;11.10;;
35150;SDS011;55720;51.972;4.624;2023-05-10T03:35:10;26.17;;;10.20;;
35150;SDS011;55720;51.972;4.624;2023-05-10T03:37:38;23.58;;;10.57;;
35150;SDS011;55720;51.972;4.624;2023-05-10T03:40:03;25.73;;;9.73;;
35150;SDS011;55720;51.972;4.624;2023-05-10T03:42:30;21.75;;;9.35;;
35150;SDS011;55720;51.972;4.624;2023-05-10T03:44:55;23.63;;;11.10;;
35150;SDS011;55720;51.972;4.624;2023-05-10T03:47:20;25.55;;;9.18;;
35150;SDS011;55720;51.972;4.624;2023-05-10T03:49:46;23.92;;;10.10;;
35150;SDS011;55720;51.972;4.624;2023-05-10T03:52:11;23.48;;;10.13;;
35150;SDS011;55720;51.972;4.624;2023-05-10T03:54:37;23.20;;;10.35;;
35150;SDS011;55720;51.972;4.624;2023-05-10T03:57:02;29.27;;;11.70;;
35150;SDS011;55720;51.972;4.624;2023-05-10T03:59:28;31.35;;;11.18;;
35150;SDS011;55720;51.972;4.624;2023-05-10T04:01:53;22.35;;;9.02;;
35150;SDS011;55720;51.972;4.624;2023-05-10T04:04:18;27.00;;;9.90;;
35150;SDS011;55720;51.972;4.624;2023-05-10T04:06:45;23.90;;;10.63;;
35150;SDS011;55720;51.972;4.624;2023-05-10T04:09:11;30.10;;;11.82;;
35150;SDS011;55720;51.972;4.624;2023-05-10T04:11:36;31.65;;;12.05;;
35150;SDS011;55720;51.972;4.624;2023-05-10T04:14:02;26.65;;;11.35;;
35150;SDS011;55720;51.972;4.624;2023-05-10T04:16:27;29.83;;;11.38;;
35150;SDS011;55720;51.972;4.624;2023-05-10T04:18:52;25.75;;;11.40;;
35150;SDS011;55720;51.972;4.624;2023-05-10T04:21:18;24.05;;;11.20;;
35150;SDS011;55720;51.972;4.624;2023-05-10T04:23:44;31.27;;;12.05;;
35150;SDS011;55720;51.972;4.624;2023-05-10T04:26:09;28.20;;;12.77;;
35150;SDS011;55720;51.972;4.624;2023-05-10T04:28:34;26.15;;;11.57;;
35150;SDS011;55720;51.972;4.624;2023-05-10T04:31:03;32.38;;;12.68;;
35150;SDS011;55720;51.972;4.624;2023-05-10T04:33:30;31.33;;;12.48;;
35150;SDS011;55720;51.972;4.624;2023-05-10T04:35:56;27.23;;;11.40;;
35150;SDS011;55720;51.972;4.624;2023-05-10T04:38:21;25.73;;;10.63;;
35150;SDS011;55720;51.972;4.624;2023-05-10T04:40:47;26.13;;;10.23;;
35150;SDS011;55720;51.972;4.624;2023-05-10T04:43:12;26.38;;;10.52;;
35150;SDS011;55720;51.972;4.624;2023-05-10T04:45:38;26.88;;;10.23;;
35150;SDS011;55720;51.972;4.624;2023-05-10T04:48:03;22.98;;;10.50;;
35150;SDS011;55720;51.972;4.624;2023-05-10T04:50:29;23.38;;;9.70;;
35150;SDS011;55720;51.972;4.624;2023-05-10T04:52:54;24.38;;;9.43;;
35150;SDS011;55720;51.972;4.624;2023-05-10T04:55:19;26.55;;;9.75;;
35150;SDS011;55720;51.972;4.624;2023-05-10T04:57:45;30.70;;;10.20;;
35150;SDS011;55720;51.972;4.624;2023-05-10T05:00:10;32.45;;;10.32;;
35150;SDS011;55720;51.972;4.624;2023-05-10T05:02:37;29.63;;;9.80;;
35150;SDS011;55720;51.972;4.624;2023-05-10T05:05:02;24.02;;;9.85;;
35150;SDS011;55720;51.972;4.624;2023-05-10T05:07:28;20.15;;;8.80;;
35150;SDS011;55720;51.972;4.624;2023-05-10T05:09:53;33.33;;;8.98;;
35150;SDS011;55720;51.972;4.624;2023-05-10T05:12:18;22.42;;;8.88;;
35150;SDS011;55720;51.972;4.624;2023-05-10T05:14:43;29.17;;;9.88;;
35150;SDS011;55720;51.972;4.624;2023-05-10T05:17:09;27.77;;;8.88;;
35150;SDS011;55720;51.972;4.624;2023-05-10T05:19:34;26.13;;;8.70;;
35150;SDS011;55720;51.972;4.624;2023-05-10T05:22:00;22.45;;;9.57;;
35150;SDS011;55720;51.972;4.624;2023-05-10T05:24:26;27.10;;;8.90;;
35150;SDS011;55720;51.972;4.624;2023-05-10T05:26:51;22.35;;;7.95;;
35150;SDS011;55720;51.972;4.624;2023-05-10T05:29:16;26.92;;;8.57;;
35150;SDS011;55720;51.972;4.624;2023-05-10T05:31:42;26.25;;;8.75;;
35150;SDS011;55720;51.972;4.624;2023-05-10T05:34:07;25.08;;;7.75;;
35150;SDS011;55720;51.972;4.624;2023-05-10T05:36:35;19.63;;;7.32;;
35150;SDS011;55720;51.972;4.624;2023-05-10T05:39:03;24.92;;;8.80;;
35150;SDS011;55720;51.972;4.624;2023-05-10T05:41:28;19.15;;;7.15;;
35150;SDS011;55720;51.972;4.624;2023-05-10T05:43:53;17.38;;;7.15;;
35150;SDS011;55720;51.972;4.624;2023-05-10T05:46:19;20.10;;;5.97;;
35150;SDS011;55720;51.972;4.624;2023-05-10T05:48:44;10.93;;;4.50;;
35150;SDS011;55720;51.972;4.624;2023-05-10T05:51:09;11.02;;;4.95;;
35150;SDS011;55720;51.972;4.624;2023-05-10T05:53:35;15.52;;;5.97;;
35150;SDS011;55720;51.972;4.624;2023-05-10T05:56:01;11.77;;;4.72;;
35150;SDS011;55720;51.972;4.624;2023-05-10T05:58:26;8.05;;;4.47;;
35150;SDS011;55720;51.972;4.624;2023-05-10T06:00:52;10.80;;;3.85;;
35150;SDS011;55720;51.972;4.624;2023-05-10T06:03:19;5.45;;;3.25;;
35150;SDS011;55720;51.972;4.624;2023-05-10T06:05:44;4.03;;;2.65;;
35150;SDS011;55720;51.972;4.624;2023-05-10T06:08:10;6.10;;;3.20;;
35150;SDS011;55720;51.972;4.624;2023-05-10T06:10:35;4.30;;;2.95;;
35150;SDS011;55720;51.972;4.624;2023-05-10T06:13:01;3.03;;;2.40;;
35150;SDS011;55720;51.972;4.624;2023-05-10T06:15:27;3.78;;;2.22;;
35150;SDS011;55720;51.972;4.624;2023-05-10T06:17:52;2.80;;;2.20;;
35150;SDS011;55720;51.972;4.624;2023-05-10T06:20:18;3.05;;;2.47;;
35150;SDS011;55720;51.972;4.624;2023-05-10T06:22:43;4.20;;;2.35;;
35150;SDS011;55720;51.972;4.624;2023-05-10T06:25:09;4.07;;;2.63;;
35150;SDS011;55720;51.972;4.624;2023-05-10T06:27:34;5.07;;;2.92;;
35150;SDS011;55720;51.972;4.624;2023-05-10T06:30:00;4.35;;;2.55;;
35150;SDS011;55720;51.972;4.624;2023-05-10T06:32:25;3.30;;;2.17;;
35150;SDS011;55720;51.972;4.624;2023-05-10T06:34:51;4.65;;;3.15;;
35150;SDS011;55720;51.972;4.624;2023-05-10T06:37:17;3.22;;;2.45;;
35150;SDS011;55720;51.972;4.624;2023-05-10T06:39:42;3.80;;;2.85;;
35150;SDS011;55720;51.972;4.624;2023-05-10T06:42:08;3.63;;;2.90;;
35150;SDS011;55720;51.972;4.624;2023-05-10T06:44:34;3.50;;;2.70;;
35150;SDS011;55720;51.972;4.624;2023-05-10T06:46:59;5.75;;;3.10;;
35150;SDS011;55720;51.972;4.624;2023-05-10T06:49:25;3.35;;;2.70;;
35150;SDS011;55720;51.972;4.624;2023-05-10T06:51:50;4.78;;;3.08;;
35150;SDS011;55720;51.972;4.624;2023-05-10T06:54:15;3.65;;;3.28;;
35150;SDS011;55720;51.972;4.624;2023-05-10T06:56:41;4.03;;;2.65;;
35150;SDS011;55720;51.972;4.624;2023-05-10T06:59:06;3.25;;;2.58;;
35150;SDS011;55720;51.972;4.624;2023-05-10T07:01:32;2.83;;;2.10;;
35150;SDS011;55720;51.972;4.624;2023-05-10T07:03:57;4.30;;;2.30;;
35150;SDS011;55720;51.972;4.624;2023-05-10T07:06:23;2.63;;;2.17;;
35150;SDS011;55720;51.972;4.624;2023-05-10T07:08:48;2.50;;;2.03;;
35150;SDS011;55720;51.972;4.624;2023-05-10T07:11:13;2.95;;;2.22;;
35150;SDS011;55720;51.972;4.624;2023-05-10T07:13:39;1.95;;;1.75;;
35150;SDS011;55720;51.972;4.624;2023-05-10T07:16:06;3.63;;;2.03;;
35150;SDS011;55720;51.972;4.624;2023-05-10T07:18:32;2.65;;;1.90;;
35150;SDS011;55720;51.972;4.624;2023-05-10T07:20:58;2.97;;;2.17;;
35150;SDS011;55720;51.972;4.624;2023-05-10T07:23:24;2.58;;;2.30;;
35150;SDS011;55720;51.972;4.624;2023-05-10T07:25:49;3.40;;;2.50;;
35150;SDS011;55720;51.972;4.624;2023-05-10T07:28:17;3.33;;;2.65;;
35150;SDS011;55720;51.972;4.624;2023-05-10T07:30:43;3.20;;;2.17;;
35150;SDS011;55720;51.972;4.624;2023-05-10T07:33:09;4.07;;;2.47;;
35150;SDS011;55720;51.972;4.624;2023-05-10T07:35:36;4.32;;;2.80;;
35150;SDS011;55720;51.972;4.624;2023-05-10T07:38:02;4.70;;;2.67;;
35150;SDS011;55720;51.972;4.624;2023-05-10T07:40:27;2.47;;;2.28;;
35150;SDS011;55720;51.972;4.624;2023-05-10T07:42:53;4.10;;;2.42;;
35150;SDS011;55720;51.972;4.624;2023-05-10T07:45:19;3.00;;;2.35;;
35150;SDS011;55720;51.972;4.624;2023-05-10T07:47:44;3.33;;;2.63;;
35150;SDS011;55720;51.972;4.624;2023-05-10T07:50:10;3.08;;;2.50;;
35150;SDS011;55720;51.972;4.624;2023-05-10T07:52:35;3.60;;;2.90;;
35150;SDS011;55720;51.972;4.624;2023-05-10T07:55:00;4.93;;;2.42;;
35150;SDS011;55720;51.972;4.624;2023-05-10T07:57:26;2.45;;;2.10;;
35150;SDS011;55720;51.972;4.624;2023-05-10T07:59:51;2.90;;;2.10;;
35150;SDS011;55720;51.972;4.624;2023-05-10T08:02:17;4.28;;;2.10;;
35150;SDS011;55720;51.972;4.624;2023-05-10T08:04:42;4.72;;;2.75;;
35150;SDS011;55720;51.972;4.624;2023-05-10T08:07:07;3.50;;;2.92;;
35150;SDS011;55720;51.972;4.624;2023-05-10T08:09:33;2.78;;;2.53;;
35150;SDS011;55720;51.972;4.624;2023-05-10T08:11:58;5.40;;;2.53;;
35150;SDS011;55720;51.972;4.624;2023-05-10T08:14:24;3.15;;;2.63;;
35150;SDS011;55720;51.972;4.624;2023-05-10T08:16:53;4.35;;;2.53;;
35150;SDS011;55720;51.972;4.624;2023-05-10T08:19:18;4.68;;;2.17;;
35150;SDS011;55720;51.972;4.624;2023-05-10T08:21:46;3.58;;;2.45;;
35150;SDS011;55720;51.972;4.624;2023-05-10T08:24:11;2.85;;;2.38;;
35150;SDS011;55720;51.972;4.624;2023-05-10T08:26:36;4.22;;;2.58;;
35150;SDS011;55720;51.972;4.624;2023-05-10T08:29:02;2.88;;;2.25;;
35150;SDS011;55720;51.972;4.624;2023-05-10T08:31:27;4.30;;;2.70;;
35150;SDS011;55720;51.972;4.624;2023-05-10T08:33:53;3.17;;;2.45;;
35150;SDS011;55720;51.972;4.624;2023-05-10T08:36:18;3.25;;;2.60;;
35150;SDS011;55720;51.972;4.624;2023-05-10T08:38:52;2.33;;;2.13;;
35150;SDS011;55720;51.972;4.624;2023-05-10T08:41:22;4.03;;;2.75;;
35150;SDS011;55720;51.972;4.624;2023-05-10T08:43:52;3.53;;;2.78;;
35150;SDS011;55720;51.972;4.624;2023-05-10T08:46:19;2.93;;;2.37;;
35150;SDS011;55720;51.972;4.624;2023-05-10T08:48:46;2.80;;;2.17;;
35150;SDS011;55720;51.972;4.624;2023-05-10T08:51:13;4.13;;;2.38;;
35150;SDS011;55720;51.972;4.624;2023-05-10T08:53:41;3.10;;;2.25;;
35150;SDS011;55720;51.972;4.624;2023-05-10T08:56:07;2.47;;;2.10;;
35150;SDS011;55720;51.972;4.624;2023-05-10T08:58:32;2.42;;;1.83;;
35150;SDS011;55720;51.972;4.624;2023-05-10T09:00:58;4.82;;;1.92;;
35150;SDS011;55720;51.972;4.624;2023-05-10T09:03:24;1.60;;;1.48;;
35150;SDS011;55720;51.972;4.624;2023-05-10T09:05:50;3.08;;;2.40;;
35150;SDS011;55720;51.972;4.624;2023-05-10T09:08:15;2.28;;;1.17;;
35150;SDS011;55720;51.972;4.624;2023-05-10T09:10:45;5.68;;;1.60;;
35150;SDS011;55720;51.972;4.624;2023-05-10T09:13:12;2.30;;;1.80;;
35150;SDS011;55720;51.972;4.624;2023-05-10T09:15:40;1.88;;;1.45;;
35150;SDS011;55720;51.972;4.624;2023-05-10T09:18:05;1.52;;;1.42;;
35150;SDS011;55720;51.972;4.624;2023-05-10T09:20:31;2.17;;;1.83;;
35150;SDS011;55720;51.972;4.624;2023-05-10T09:22:56;2.00;;;1.27;;
35150;SDS011;55720;51.972;4.624;2023-05-10T09:25:22;1.23;;;1.13;;
35150;SDS011;55720;51.972;4.624;2023-05-10T09:27:47;2.28;;;1.38;;
35150;SDS011;55720;51.972;4.624;2023-05-10T09:30:23;1.40;;;1.20;;
35150;SDS011;55720;51.972;4.624;2023-05-10T09:32:51;1.45;;;0.90;;
35150;SDS011;55720;51.972;4.624;2023-05-10T09:35:18;1.17;;;1.02;;
35150;SDS011;55720;51.972;4.624;2023-05-10T09:37:46;1.20;;;1.10;;
35150;SDS011;55720;51.972;4.624;2023-05-10T09:40:15;1.23;;;1.10;;
35150;SDS011;55720;51.972;4.624;2023-05-10T09:42:42;1.65;;;1.50;;
35150;SDS011;55720;51.972;4.624;2023-05-10T09:45:15;2.15;;;1.95;;
35150;SDS011;55720;51.972;4.624;2023-05-10T09:47:40;4.57;;;3.53;;
35150;SDS011;55720;51.972;4.624;2023-05-10T09:50:06;5.15;;;3.55;;
35150;SDS011;55720;51.972;4.624;2023-05-10T09:52:53;4.68;;;4.18;;
35150;SDS011;55720;51.972;4.624;2023-05-10T09:58:10;5.32;;;4.03;;
35150;SDS011;55720;51.972;4.624;2023-05-10T10:00:37;4.10;;;3.70;;
35150;SDS011;55720;51.972;4.624;2023-05-10T10:03:04;3.58;;;2.58;;
35150;SDS011;55720;51.972;4.624;2023-05-10T10:07:55;2.03;;;1.83;;
35150;SDS011;55720;51.972;4.624;2023-05-10T10:10:22;1.98;;;1.70;;
35150;SDS011;55720;51.972;4.624;2023-05-10T10:12:48;1.83;;;1.63;;
35150;SDS011;55720;51.972;4.624;2023-05-10T10:15:13;2.42;;;2.15;;
35150;SDS011;55720;51.972;4.624;2023-05-10T10:17:39;3.15;;;1.90;;
35150;SDS011;55720;51.972;4.624;2023-05-10T10:20:06;3.90;;;2.22;;
35150;SDS011;55720;51.972;4.624;2023-05-10T10:22:32;3.22;;;2.22;;
35150;SDS011;55720;51.972;4.624;2023-05-10T10:24:58;3.13;;;2.30;;
35150;SDS011;55720;51.972;4.624;2023-05-10T10:35:12;2.45;;;2.22;;
35150;SDS011;55720;51.972;4.624;2023-05-10T10:37:44;4.03;;;2.85;;
35150;SDS011;55720;51.972;4.624;2023-05-10T10:40:24;2.83;;;2.55;;
35150;SDS011;55720;51.972;4.624;2023-05-10T10:42:52;3.20;;;2.47;;
35150;SDS011;55720;51.972;4.624;2023-05-10T10:45:19;2.20;;;1.80;;
35150;SDS011;55720;51.972;4.624;2023-05-10T10:47:46;1.65;;;1.48;;
35150;SDS011;55720;51.972;4.624;2023-05-10T10:50:11;2.17;;;1.95;;
35150;SDS011;55720;51.972;4.624;2023-05-10T10:52:44;2.78;;;1.90;;
35150;SDS011;55720;51.972;4.624;2023-05-10T10:55:14;1.63;;;1.30;;
35150;SDS011;55720;51.972;4.624;2023-05-10T11:00:37;3.40;;;2.13;;
35150;SDS011;55720;51.972;4.624;2023-05-10T11:11:14;2.08;;;1.88;;
35150;SDS011;55720;51.972;4.624;2023-05-10T11:13:46;1.52;;;1.42;;
35150;SDS011;55720;51.972;4.624;2023-05-10T11:16:21;4.95;;;2.63;;
35150;SDS011;55720;51.972;4.624;2023-05-10T11:19:01;2.90;;;1.92;;
35150;SDS011;55720;51.972;4.624;2023-05-10T11:21:27;2.58;;;2.08;;
35150;SDS011;55720;51.972;4.624;2023-05-10T11:23:58;2.50;;;2.00;;
35150;SDS011;55720;51.972;4.624;2023-05-10T11:26:25;2.88;;;2.05;;
35150;SDS011;55720;51.972;4.624;2023-05-10T11:28:55;2.28;;;1.92;;
35150;SDS011;55720;51.972;4.624;2023-05-10T11:31:20;1.80;;;1.67;;
35150;SDS011;55720;51.972;4.624;2023-05-10T11:33:51;2.55;;;2.00;;
35150;SDS011;55720;51.972;4.624;2023-05-10T11:36:19;2.80;;;2.20;;
35150;SDS011;55720;51.972;4.624;2023-05-10T11:38:46;3.28;;;2.38;;
35150;SDS011;55720;51.972;4.624;2023-05-10T11:41:13;2.45;;;2.25;;
35150;SDS011;55720;51.972;4.624;2023-05-10T11:43:40;2.97;;;2.60;;
35150;SDS011;55720;51.972;4.624;2023-05-10T11:46:07;3.72;;;2.85;;
35150;SDS011;55720;51.972;4.624;2023-05-10T11:48:34;4.30;;;2.53;;
35150;SDS011;55720;51.972;4.624;2023-05-10T11:51:00;2.80;;;2.60;;
35150;SDS011;55720;51.972;4.624;2023-05-10T11:53:27;3.25;;;2.90;;
35150;SDS011;55720;51.972;4.624;2023-05-10T11:55:54;3.22;;;2.60;;
35150;SDS011;55720;51.972;4.624;2023-05-10T11:58:19;4.03;;;2.70;;
35150;SDS011;55720;51.972;4.624;2023-05-10T12:00:46;4.15;;;2.45;;
35150;SDS011;55720;51.972;4.624;2023-05-10T12:03:13;1.70;;;1.60;;
35150;SDS011;55720;51.972;4.624;2023-05-10T12:05:38;2.38;;;2.17;;
35150;SDS011;55720;51.972;4.624;2023-05-10T12:08:13;4.85;;;1.90;;
35150;SDS011;55720;51.972;4.624;2023-05-10T12:10:39;2.35;;;2.13;;
35150;SDS011;55720;51.972;4.624;2023-05-10T12:13:04;2.65;;;1.80;;
35150;SDS011;55720;51.972;4.624;2023-05-10T12:15:30;2.30;;;1.80;;
35150;SDS011;55720;51.972;4.624;2023-05-10T12:17:55;3.22;;;2.03;;
35150;SDS011;55720;51.972;4.624;2023-05-10T12:20:22;2.35;;;1.83;;
35150;SDS011;55720;51.972;4.624;2023-05-10T12:22:52;2.65;;;2.28;;
35150;SDS011;55720;51.972;4.624;2023-05-10T12:25:20;5.43;;;2.42;;
35150;SDS011;55720;51.972;4.624;2023-05-10T12:27:48;4.15;;;2.13;;
35150;SDS011;55720;51.972;4.624;2023-05-10T12:30:26;2.10;;;1.90;;
35150;SDS011;55720;51.972;4.624;2023-05-10T12:32:54;3.10;;;2.13;;
35150;SDS011;55720;51.972;4.624;2023-05-10T12:35:25;3.35;;;2.38;;
35150;SDS011;55720;51.972;4.624;2023-05-10T12:37:51;3.03;;;2.00;;
35150;SDS011;55720;51.972;4.624;2023-05-10T12:40:16;2.72;;;2.00;;
35150;SDS011;55720;51.972;4.624;2023-05-10T12:42:42;2.65;;;2.10;;
35150;SDS011;55720;51.972;4.624;2023-05-10T12:45:09;4.68;;;2.60;;
35150;SDS011;55720;51.972;4.624;2023-05-10T12:47:35;2.53;;;2.20;;
35150;SDS011;55720;51.972;4.624;2023-05-10T12:50:01;3.25;;;2.90;;
35150;SDS011;55720;51.972;4.624;2023-05-10T12:52:28;2.45;;;2.22;;
35150;SDS011;55720;51.972;4.624;2023-05-10T12:54:53;6.55;;;2.70;;
35150;SDS011;55720;51.972;4.624;2023-05-10T12:57:21;3.25;;;2.22;;
35150;SDS011;55720;51.972;4.624;2023-05-10T12:59:47;6.05;;;2.35;;
35150;SDS011;55720;51.972;4.624;2023-05-10T13:02:12;3.13;;;2.53;;
35150;SDS011;55720;51.972;4.624;2023-05-10T13:04:39;2.40;;;2.17;;
35150;SDS011;55720;51.972;4.624;2023-05-10T13:07:05;1.88;;;1.70;;
35150;SDS011;55720;51.972;4.624;2023-05-10T13:09:34;1.73;;;1.63;;
35150;SDS011;55720;51.972;4.624;2023-05-10T13:12:00;3.13;;;2.00;;
35150;SDS011;55720;51.972;4.624;2023-05-10T13:14:25;3.50;;;2.05;;
35150;SDS011;55720;51.972;4.624;2023-05-10T13:16:51;4.65;;;2.47;;
35150;SDS011;55720;51.972;4.624;2023-05-10T13:19:16;2.22;;;1.83;;
35150;SDS011;55720;51.972;4.624;2023-05-10T13:21:42;2.95;;;1.85;;
35150;SDS011;55720;51.972;4.624;2023-05-10T13:24:09;4.25;;;1.80;;
35150;SDS011;55720;51.972;4.624;2023-05-10T13:26:35;5.60;;;1.65;;
35150;SDS011;55720;51.972;4.624;2023-05-10T13:29:01;2.40;;;1.38;;
35150;SDS011;55720;51.972;4.624;2023-05-10T13:31:27;2.03;;;1.40;;
35150;SDS011;55720;51.972;4.624;2023-05-10T13:33:52;2.45;;;1.95;;
35150;SDS011;55720;51.972;4.624;2023-05-10T13:36:18;3.05;;;1.80;;
35150;SDS011;55720;51.972;4.624;2023-05-10T13:38:43;1.95;;;1.75;;
35150;SDS011;55720;51.972;4.624;2023-05-10T13:41:08;1.67;;;1.58;;
35150;SDS011;55720;51.972;4.624;2023-05-10T13:43:34;3.00;;;1.73;;
35150;SDS011;55720;51.972;4.624;2023-05-10T13:46:00;2.10;;;1.52;;
35150;SDS011;55720;51.972;4.624;2023-05-10T13:48:25;1.42;;;1.33;;
35150;SDS011;55720;51.972;4.624;2023-05-10T13:50:51;1.55;;;1.30;;
35150;SDS011;55720;51.972;4.624;2023-05-10T13:53:16;2.65;;;1.55;;
35150;SDS011;55720;51.972;4.624;2023-05-10T13:55:42;1.40;;;1.30;;
35150;SDS011;55720;51.972;4.624;2023-05-10T13:58:07;2.40;;;1.50;;
35150;SDS011;55720;51.972;4.624;2023-05-10T14:00:32;1.73;;;1.35;;
35150;SDS011;55720;51.972;4.624;2023-05-10T14:02:58;4.15;;;1.80;;
35150;SDS011;55720;51.972;4.624;2023-05-10T14:05:24;3.47;;;1.58;;
35150;SDS011;55720;51.972;4.624;2023-05-10T14:07:49;5.18;;;1.73;;
35150;SDS011;55720;51.972;4.624;2023-05-10T14:10:15;2.33;;;1.63;;
35150;SDS011;55720;51.972;4.624;2023-05-10T14:12:40;2.17;;;1.58;;
35150;SDS011;55720;51.972;4.624;2023-05-10T14:15:06;1.85;;;1.50;;
35150;SDS011;55720;51.972;4.624;2023-05-10T14:17:32;1.63;;;1.48;;
35150;SDS011;55720;51.972;4.624;2023-05-10T14:19:57;1.73;;;1.60;;
35150;SDS011;55720;51.972;4.624;2023-05-10T14:22:22;5.75;;;2.15;;
35150;SDS011;55720;51.972;4.624;2023-05-10T14:24:48;2.42;;;1.55;;
35150;SDS011;55720;51.972;4.624;2023-05-10T14:27:13;3.67;;;1.63;;
35150;SDS011;55720;51.972;4.624;2023-05-10T14:29:39;3.03;;;1.77;;
35150;SDS011;55720;51.972;4.624;2023-05-10T14:32:04;2.42;;;1.77;;
35150;SDS011;55720;51.972;4.624;2023-05-10T14:34:30;2.15;;;1.90;;
35150;SDS011;55720;51.972;4.624;2023-05-10T14:36:55;4.10;;;1.55;;
35150;SDS011;55720;51.972;4.624;2023-05-10T14:39:21;3.03;;;1.65;;
35150;SDS011;55720;51.972;4.624;2023-05-10T14:41:46;4.03;;;1.88;;
35150;SDS011;55720;51.972;4.624;2023-05-10T14:44:12;2.22;;;1.70;;
35150;SDS011;55720;51.972;4.624;2023-05-10T14:46:38;2.15;;;1.80;;
35150;SDS011;55720;51.972;4.624;2023-05-10T14:49:04;1.90;;;1.70;;
35150;SDS011;55720;51.972;4.624;2023-05-10T14:51:29;3.35;;;2.10;;
35150;SDS011;55720;51.972;4.624;2023-05-10T14:53:56;3.28;;;1.85;;
35150;SDS011;55720;51.972;4.624;2023-05-10T14:56:22;2.80;;;1.98;;
35150;SDS011;55720;51.972;4.624;2023-05-10T14:58:47;1.98;;;1.83;;
35150;SDS011;55720;51.972;4.624;2023-05-10T15:01:12;4.28;;;1.95;;
35150;SDS011;55720;51.972;4.624;2023-05-10T15:03:38;2.10;;;1.90;;
35150;SDS011;55720;51.972;4.624;2023-05-10T15:06:03;2.42;;;2.10;;
35150;SDS011;55720;51.972;4.624;2023-05-10T15:08:29;2.70;;;1.67;;
35150;SDS011;55720;51.972;4.624;2023-05-10T15:10:54;4.05;;;2.00;;
35150;SDS011;55720;51.972;4.624;2023-05-10T15:13:21;3.10;;;1.95;;
35150;SDS011;55720;51.972;4.624;2023-05-10T15:15:46;3.33;;;2.13;;
35150;SDS011;55720;51.972;4.624;2023-05-10T15:18:11;2.53;;;1.90;;
35150;SDS011;55720;51.972;4.624;2023-05-10T15:20:37;2.88;;;1.80;;
35150;SDS011;55720;51.972;4.624;2023-05-10T15:23:02;2.58;;;2.00;;
35150;SDS011;55720;51.972;4.624;2023-05-10T15:25:28;2.05;;;1.85;;